Time;durP1;ratioP1;P1;durP2;ratioP2;P2;SDS_P1;SDS_P2;PMS_P1;PMS_P2;Temp;Humidity;BMP_temperature;BMP_pressure;BME280_temperature;BME280_humidity;BME280_pressure;Samples;Min_cycle;Max_cycle;Signal;HPM_P1;HPM_P2
2022/06/24 00:01:35;;;;;;;5.53;5.07;;;;;;;20.30;48.31;100236.06;5046992;28;20024;-22
2022/06/24 00:04:01;;;;;;;6.32;5.82;;;;;;;20.28;47.96;100228.13;5062160;28;20025;-22
2022/06/24 00:06:43;;;;;;;5.78;5.35;;;;;;;20.19;48.54;100234.88;5058160;28;20292;-22
2022/06/24 00:09:11;;;;;;;5.85;5.43;;;;;;;20.13;48.56;100236.06;5047665;28;20120;-22
2022/06/24 00:11:36;;;;;;;5.63;5.22;;;;;;;20.13;48.45;100229.84;5018043;28;20982;-22
2022/06/24 00:14:11;;;;;;;5.95;5.50;;;;;;;20.10;48.40;100230.88;5048868;28;20043;-22
2022/06/24 00:16:54;;;;;;;5.60;5.20;;;;;;;20.02;48.42;100232.25;5021918;28;20481;-22
2022/06/24 00:19:19;;;;;;;6.47;5.90;;;;;;;20.02;48.38;100234.94;5040307;28;20131;-22
2022/06/24 00:21:58;;;;;;;5.82;5.43;;;;;;;19.95;48.60;100231.72;5028354;28;21401;-22
2022/06/24 00:24:23;;;;;;;5.78;5.38;;;;;;;19.97;48.67;100230.69;5063809;28;20538;-22
2022/06/24 00:26:49;;;;;;;6.35;5.85;;;;;;;19.92;48.78;100237.22;5031233;28;20037;-22
2022/06/24 00:29:17;;;;;;;6.13;5.63;;;;;;;19.88;48.82;100232.03;5064405;28;20075;-22
2022/06/24 00:32:12;;;;;;;5.68;5.22;;;;;;;19.85;49.23;100237.56;5064953;28;20024;-22
2022/06/24 00:34:39;;;;;;;6.15;5.75;;;;;;;19.83;49.26;100234.13;5012581;28;20466;-22
2022/06/24 00:37:26;;;;;;;5.80;5.38;;;;;;;19.81;49.09;100241.34;5063431;28;20027;-22
2022/06/24 00:40:13;;;;;;;6.25;5.70;;;;;;;19.78;49.20;100236.19;5055158;28;20086;-22
2022/06/24 00:42:43;;;;;;;6.45;6.05;;;;;;;19.74;49.26;100245.34;5031198;28;20044;-22
2022/06/24 00:45:20;;;;;;;6.25;5.75;;;;;;;19.70;49.26;100241.97;5037455;28;20064;-22
2022/06/24 00:47:47;;;;;;;5.90;5.50;;;;;;;19.68;49.12;100240.31;5024931;28;20516;-22
2022/06/24 00:50:20;;;;;;;6.50;5.97;;;;;;;19.66;49.55;100244.88;5044774;28;20556;-22
2022/06/24 00:52:46;;;;;;;6.68;6.13;;;;;;;19.58;49.63;100240.81;5055278;28;20043;-22
2022/06/24 00:55:19;;;;;;;6.70;6.18;;;;;;;19.54;49.58;100238.41;5044309;28;20094;-22
2022/06/24 00:57:45;;;;;;;6.57;5.90;;;;;;;19.55;49.88;100232.97;5046334;28;20036;-23
2022/06/24 01:00:14;;;;;;;7.07;6.57;;;;;;;19.49;49.28;100227.94;5037815;28;20040;-22
2022/06/24 01:02:40;;;;;;;6.28;5.88;;;;;;;19.43;50.00;100229.13;5063508;28;20020;-22
2022/06/24 01:05:07;;;;;;;6.13;5.72;;;;;;;19.41;49.78;100235.50;5064278;28;20024;-22
2022/06/24 01:07:39;;;;;;;6.53;6.03;;;;;;;19.41;50.17;100230.16;5066368;28;20037;-22
2022/06/24 01:10:07;;;;;;;6.45;5.88;;;;;;;19.35;49.96;100228.69;5063587;28;21584;-22
2022/06/24 01:12:34;;;;;;;6.85;6.35;;;;;;;19.31;49.87;100225.28;5039832;28;20043;-22
2022/06/24 01:15:00;;;;;;;6.78;6.28;;;;;;;19.25;50.20;100225.63;5036268;28;20043;-22
2022/06/24 01:17:25;;;;;;;9.10;6.55;;;;;;;19.22;50.14;100223.13;5045677;28;20027;-22
2022/06/24 01:19:50;;;;;;;6.38;5.88;;;;;;;19.18;49.94;100224.22;5056611;28;20067;-22
2022/06/24 01:22:23;;;;;;;5.60;5.20;;;;;;;19.15;50.11;100225.25;5047168;28;20055;-22
2022/06/24 01:24:49;;;;;;;6.45;5.95;;;;;;;19.12;50.19;100219.19;5039902;28;20404;-21
2022/06/24 01:27:14;;;;;;;6.63;6.13;;;;;;;19.09;50.34;100229.13;5033897;28;20029;-21
2022/06/24 01:29:40;;;;;;;6.93;6.43;;;;;;;19.04;50.23;100219.56;5052627;28;20129;-21
2022/06/24 01:32:05;;;;;;;6.38;5.88;;;;;;;19.00;50.72;100220.69;5042074;28;20388;-22
2022/06/24 01:34:31;;;;;;;6.53;6.13;;;;;;;18.98;50.56;100218.94;5019775;28;20059;-22
2022/06/24 01:36:56;;;;;;;6.07;5.57;;;;;;;18.95;50.25;100218.25;5062208;28;20032;-22
2022/06/24 01:39:22;;;;;;;6.03;5.47;;;;;;;18.91;50.82;100222.84;5065372;28;20527;-22
2022/06/24 01:41:48;;;;;;;6.38;5.88;;;;;;;18.89;50.42;100221.22;5062462;28;20437;-22
2022/06/24 01:44:13;;;;;;;7.20;6.60;;;;;;;18.89;50.91;100215.88;5028421;28;20040;-22
2022/06/24 01:46:38;;;;;;;6.28;5.88;;;;;;;18.87;51.23;100223.13;5023172;28;20072;-21
2022/06/24 01:49:04;;;;;;;6.53;6.00;;;;;;;18.80;50.83;100218.06;5042624;28;20028;-22
2022/06/24 01:51:30;;;;;;;6.57;6.07;;;;;;;18.76;51.02;100216.50;5037064;28;20032;-22
2022/06/24 01:53:56;;;;;;;6.15;5.55;;;;;;;18.74;51.52;100221.03;5041331;28;20479;-22
2022/06/24 01:56:21;;;;;;;6.65;6.15;;;;;;;18.71;51.41;100218.56;5059758;28;20057;-22
2022/06/24 01:58:46;;;;;;;6.50;6.07;;;;;;;18.65;51.77;100213.50;5036647;28;20103;-22
2022/06/24 02:01:12;;;;;;;7.10;6.50;;;;;;;18.58;51.67;100210.28;5021778;28;20480;-22
2022/06/24 02:03:38;;;;;;;6.93;6.35;;;;;;;18.58;51.91;100212.97;4996932;28;20033;-22
2022/06/24 02:06:08;;;;;;;6.95;6.45;;;;;;;18.59;51.64;100209.34;5042808;28;20124;-21
2022/06/24 02:08:33;;;;;;;7.05;6.47;;;;;;;18.51;51.64;100216.88;5040998;28;20016;-21
2022/06/24 02:13:45;;;;;;;7.38;6.88;;;;;;;18.41;51.57;100205.78;5038771;28;20104;-22
2022/06/24 02:16:10;;;;;;;8.02;7.32;;;;;;;18.41;51.53;100209.31;5040101;28;20024;-22
2022/06/24 02:18:36;;;;;;;8.07;7.40;;;;;;;18.38;51.60;100205.94;5031067;28;20030;-22
2022/06/24 02:21:01;;;;;;;7.68;6.97;;;;;;;18.32;51.90;100197.31;5028930;28;20059;-22
2022/06/24 02:23:27;;;;;;;7.85;7.20;;;;;;;18.29;51.80;100194.78;5042038;28;20040;-22
2022/06/24 02:25:53;;;;;;;8.63;7.93;;;;;;;18.26;51.81;100200.28;5029198;28;20294;-22
2022/06/24 02:28:18;;;;;;;7.55;6.93;;;;;;;18.21;51.70;100195.16;5049589;28;20618;-22
2022/06/24 02:30:45;;;;;;;8.32;7.72;;;;;;;18.17;51.85;100192.72;5042395;28;20033;-22
2022/06/24 02:33:11;;;;;;;8.40;7.63;;;;;;;18.16;51.94;100193.66;5047008;28;20552;-22
2022/06/24 02:35:37;;;;;;;8.13;7.40;;;;;;;18.08;51.83;100200.19;5029484;28;20035;-22
2022/06/24 02:38:02;;;;;;;8.05;7.45;;;;;;;18.06;51.54;100198.53;5049707;28;20481;-22
2022/06/24 02:40:47;;;;;;;8.15;7.55;;;;;;;18.06;51.78;100195.88;5044524;28;21020;-22
2022/06/24 02:43:26;;;;;;;8.27;7.57;;;;;;;18.05;51.89;100184.34;5047693;28;20554;-22
2022/06/24 02:45:52;;;;;;;8.30;7.60;;;;;;;18.00;52.00;100191.69;5041896;28;20059;-22
2022/06/24 02:48:19;;;;;;;8.25;7.60;;;;;;;17.98;51.93;100185.56;5047266;28;20050;-22
2022/06/24 02:50:49;;;;;;;8.32;7.63;;;;;;;17.97;52.07;100186.50;5060719;28;20019;-22
2022/06/24 02:53:15;;;;;;;8.23;7.40;;;;;;;17.98;52.07;100177.56;5068919;28;20024;-22
2022/06/24 02:55:41;;;;;;;8.27;7.57;;;;;;;17.96;51.95;100179.44;5067933;28;20025;-22
2022/06/24 02:58:07;;;;;;;9.30;8.63;;;;;;;17.92;52.20;100173.41;5066850;28;20035;-22
2022/06/24 03:00:33;;;;;;;8.23;7.53;;;;;;;17.96;52.14;100179.44;5054705;28;20036;-21
2022/06/24 03:02:58;;;;;;;8.63;8.02;;;;;;;17.93;52.37;100179.56;5043541;28;20039;-22
2022/06/24 03:05:24;;;;;;;9.18;8.48;;;;;;;17.90;52.15;100174.38;5028147;28;20032;-22
2022/06/24 03:07:50;;;;;;;9.05;8.32;;;;;;;17.88;52.14;100170.94;5047692;28;20468;-22
2022/06/24 03:10:15;;;;;;;9.05;8.25;;;;;;;17.85;52.62;100171.97;5027604;28;20037;-21
2022/06/24 03:12:41;;;;;;;8.98;7.90;;;;;;;17.81;52.56;100168.56;5026190;28;20028;-21
2022/06/24 03:15:08;;;;;;;8.20;7.60;;;;;;;17.82;52.38;100172.97;5030961;28;20090;-22
2022/06/24 03:17:33;;;;;;;8.68;7.90;;;;;;;17.79;52.39;100173.13;5045479;28;20077;-21
2022/06/24 03:19:59;;;;;;;9.18;8.40;;;;;;;17.77;52.74;100164.31;5027571;28;20030;-21
2022/06/24 03:22:24;;;;;;;8.98;8.07;;;;;;;17.74;52.66;100168.94;5054439;28;20111;-22
2022/06/24 03:24:49;;;;;;;8.45;7.85;;;;;;;17.68;52.23;100160.25;5047098;28;20051;-22
2022/06/24 03:27:14;;;;;;;9.23;8.52;;;;;;;17.70;52.14;100154.88;5059693;28;20033;-22
2022/06/24 03:29:40;;;;;;;9.35;8.55;;;;;;;17.73;52.60;100165.41;5062433;28;20423;-22
2022/06/24 03:32:05;;;;;;;9.15;8.25;;;;;;;17.70;52.41;100157.53;5026232;28;20377;-21
2022/06/24 03:34:31;;;;;;;9.00;8.30;;;;;;;17.67;52.47;100155.00;5040373;28;20395;-22
2022/06/24 03:36:56;;;;;;;8.98;8.27;;;;;;;17.69;52.39;100155.81;5042863;28;20116;-22
2022/06/24 03:39:21;;;;;;;8.77;7.97;;;;;;;17.65;52.69;100160.44;5042762;28;20024;-22
2022/06/24 03:41:47;;;;;;;8.82;8.05;;;;;;;17.64;52.68;100152.50;5043708;28;20029;-22
2022/06/24 03:44:12;;;;;;;8.30;7.68;;;;;;;17.60;52.55;100149.09;5057002;28;20072;-21
2022/06/24 03:46:38;;;;;;;8.52;7.72;;;;;;;17.62;52.97;100141.03;5063150;28;21116;-21
2022/06/24 03:49:03;;;;;;;9.05;8.23;;;;;;;17.63;52.68;100145.41;5020997;28;20063;-22
2022/06/24 03:51:28;;;;;;;8.43;7.82;;;;;;;17.64;52.60;100142.69;5043648;28;20371;-22
2022/06/24 03:53:54;;;;;;;8.85;8.05;;;;;;;17.65;52.60;100144.44;5060490;28;20028;-22
2022/06/24 03:56:20;;;;;;;8.25;7.65;;;;;;;17.60;52.50;100140.25;5064234;28;20027;-22
2022/06/24 03:58:45;;;;;;;8.48;7.78;;;;;;;17.63;52.72;100142.75;5042681;28;20479;-21
2022/06/24 04:01:10;;;;;;;8.60;7.88;;;;;;;17.63;52.65;100142.75;5059938;28;20024;-22
2022/06/24 04:03:36;;;;;;;8.73;7.97;;;;;;;17.53;52.69;100148.53;5058732;28;20033;-22
2022/06/24 04:06:01;;;;;;;8.88;8.27;;;;;;;17.46;52.86;100144.41;5044754;28;21285;-22
2022/06/24 04:08:26;;;;;;;8.52;7.72;;;;;;;17.51;52.91;100146.88;5061392;28;21067;-22
2022/06/24 04:10:52;;;;;;;8.90;8.15;;;;;;;17.57;52.77;100142.13;5048704;28;20098;-21
2022/06/24 04:13:17;;;;;;;8.55;7.85;;;;;;;17.57;52.72;100136.78;5043676;28;20043;-22
2022/06/24 04:15:47;;;;;;;8.40;7.70;;;;;;;17.61;53.08;100136.66;5030427;28;20737;-22
2022/06/24 04:18:13;;;;;;;8.85;8.05;;;;;;;17.58;53.20;100132.34;5036069;28;20056;-22
2022/06/24 04:20:38;;;;;;;9.32;8.38;;;;;;;17.62;53.33;100143.69;5063817;28;20111;-22
2022/06/24 04:23:04;;;;;;;8.77;7.90;;;;;;;17.60;53.88;100146.44;5059009;28;20480;-22
2022/06/24 04:25:29;;;;;;;8.70;8.00;;;;;;;17.60;53.65;100141.09;5045265;28;20032;-22
2022/06/24 04:27:54;;;;;;;8.80;8.00;;;;;;;17.65;53.10;100144.44;5060400;28;20017;-22
2022/06/24 04:30:20;;;;;;;8.70;7.90;;;;;;;17.65;53.84;100144.44;5048164;28;20054;-22
2022/06/24 04:32:45;;;;;;;8.77;7.97;;;;;;;17.66;53.05;100142.63;5055022;28;20090;-22
2022/06/24 04:35:10;;;;;;;8.50;7.78;;;;;;;17.71;52.58;100143.28;5056386;28;20033;-22
2022/06/24 04:37:37;;;;;;;7.53;6.93;;;;;;;17.72;53.32;100138.78;5058907;28;20019;-22
2022/06/24 04:40:04;;;;;;;8.05;7.35;;;;;;;17.71;52.88;100137.94;5063936;28;20427;-22
2022/06/24 04:42:29;;;;;;;7.75;7.15;;;;;;;17.78;53.25;100134.03;5044853;28;20028;-22
2022/06/24 04:44:55;;;;;;;8.18;7.57;;;;;;;17.81;52.72;100133.88;5059462;28;20207;-22
2022/06/24 04:47:20;;;;;;;7.97;7.38;;;;;;;17.86;53.25;100130.13;5041186;28;20072;-22
2022/06/24 04:49:46;;;;;;;8.23;7.43;;;;;;;17.89;52.61;100125.53;5062243;28;20492;-22
2022/06/24 04:52:11;;;;;;;8.55;7.75;;;;;;;17.94;52.43;100128.81;5060632;28;20042;-22
2022/06/24 04:54:36;;;;;;;7.68;7.10;;;;;;;17.97;52.18;100127.81;5063168;28;20028;-22
2022/06/24 04:57:02;;;;;;;8.02;7.32;;;;;;;18.01;52.30;100129.38;5062900;28;20024;-22
2022/06/24 04:59:27;;;;;;;8.45;7.63;;;;;;;18.07;52.43;100128.22;5038076;28;20028;-21
2022/06/24 05:01:54;;;;;;;7.97;7.28;;;;;;;18.12;52.69;100131.56;5056760;28;20028;-21
2022/06/24 05:04:19;;;;;;;7.72;7.13;;;;;;;18.18;52.12;100130.41;5039574;28;20112;-22
2022/06/24 05:06:44;;;;;;;6.93;6.18;;;;;;;18.23;52.12;100128.34;5059663;28;20455;-21
2022/06/24 05:09:10;;;;;;;7.53;6.93;;;;;;;18.28;51.78;100130.81;5038709;28;20029;-22
2022/06/24 05:11:35;;;;;;;7.47;6.78;;;;;;;18.35;52.04;100132.22;5060201;28;20548;-22
2022/06/24 05:14:00;;;;;;;7.07;6.45;;;;;;;18.41;51.70;100131.03;5056934;28;20103;-22
2022/06/24 05:16:25;;;;;;;6.97;6.47;;;;;;;18.47;52.21;100130.72;5057224;28;20024;-22
2022/06/24 05:18:51;;;;;;;7.32;6.72;;;;;;;18.56;52.08;100134.72;5055234;28;20571;-22
2022/06/24 05:21:16;;;;;;;6.90;6.30;;;;;;;18.63;51.97;100127.25;5041024;28;20027;-22
2022/06/24 05:23:41;;;;;;;6.43;5.95;;;;;;;18.72;51.87;100132.13;5060970;28;20028;-22
2022/06/24 05:26:07;;;;;;;6.82;6.22;;;;;;;18.83;51.78;100137.78;5039084;28;20568;-22
2022/06/24 05:28:35;;;;;;;6.97;6.35;;;;;;;18.90;51.51;100141.00;5057388;28;20029;-22
2022/06/24 05:31:00;;;;;;;7.15;6.55;;;;;;;19.01;51.34;100135.09;5060357;28;20047;-22
2022/06/24 05:33:26;;;;;;;7.05;6.32;;;;;;;19.10;51.45;100134.63;5054013;28;20469;-22
2022/06/24 05:35:58;;;;;;;7.13;6.53;;;;;;;19.19;52.20;100138.63;5055130;28;20397;-22
2022/06/24 05:38:24;;;;;;;6.95;6.25;;;;;;;19.30;51.60;100140.69;5059094;28;20021;-22
2022/06/24 05:40:50;;;;;;;7.03;6.53;;;;;;;19.43;51.79;100134.66;5056296;28;20106;-22
2022/06/24 05:43:16;;;;;;;6.75;6.15;;;;;;;19.55;51.45;100139.34;5053203;28;20039;-22
2022/06/24 05:45:42;;;;;;;6.95;5.82;;;;;;;19.68;51.46;100139.53;5053989;28;20036;-22
2022/06/24 05:48:08;;;;;;;6.22;5.72;;;;;;;19.79;51.67;100141.59;5054467;28;20446;-22
2022/06/24 05:50:36;;;;;;;6.65;6.10;;;;;;;19.92;51.78;100127.50;5055282;28;20017;-22
2022/06/24 05:55:46;;;;;;;6.10;5.60;;;;;;;20.11;52.43;100124.69;5059002;28;20035;-22
2022/06/24 05:58:11;;;;;;;5.90;5.18;;;;;;;20.19;53.08;100119.75;5065304;28;20028;-22
2022/06/24 06:00:36;;;;;;;6.18;5.47;;;;;;;20.30;53.06;100113.75;5062205;28;20123;-22
2022/06/24 06:03:01;;;;;;;5.75;5.25;;;;;;;20.40;52.91;100113.22;5047422;28;20047;-22
2022/06/24 06:05:27;;;;;;;9.27;5.32;;;;;;;20.54;52.60;100112.38;5062514;28;20071;-22
2022/06/24 06:07:52;;;;;;;6.32;5.07;;;;;;;20.63;52.50;100112.69;5065750;28;20118;-22
2022/06/24 06:10:18;;;;;;;5.38;4.97;;;;;;;20.76;52.31;100109.25;5044838;28;20484;-22
2022/06/24 06:12:43;;;;;;;5.90;5.13;;;;;;;20.88;52.51;100103.16;5044119;28;20029;-22
2022/06/24 06:15:09;;;;;;;8.18;4.80;;;;;;;21.00;52.38;100106.03;5064256;28;20515;-22
2022/06/24 06:17:35;;;;;;;4.95;4.60;;;;;;;21.15;51.70;100099.72;5060580;28;20031;-22
2022/06/24 06:20:01;;;;;;;5.20;4.80;;;;;;;21.27;51.85;100098.09;5046810;28;20134;-22
2022/06/24 06:22:27;;;;;;;5.60;4.97;;;;;;;21.40;51.49;100098.19;5027828;28;20024;-22
2022/06/24 06:24:52;;;;;;;5.45;4.78;;;;;;;21.56;51.38;100096.31;5061494;28;20043;-22
2022/06/24 06:27:17;;;;;;;12.15;5.68;;;;;;;21.65;50.92;100088.53;5058934;28;20055;-22
2022/06/24 06:29:43;;;;;;;4.80;4.50;;;;;;;21.75;51.15;100087.97;5043040;28;20053;-22
2022/06/24 06:32:08;;;;;;;5.95;4.93;;;;;;;21.87;50.74;100092.53;5058798;28;20472;-22
2022/06/24 06:34:33;;;;;;;4.63;4.32;;;;;;;22.01;50.69;100088.06;5062147;28;20388;-22
2022/06/24 06:36:59;;;;;;;4.55;4.22;;;;;;;22.08;50.28;100086.69;5061376;28;20456;-22
2022/06/24 06:39:24;;;;;;;4.60;4.30;;;;;;;22.20;50.36;100089.53;5047907;28;20055;-22
2022/06/24 06:41:49;;;;;;;4.80;4.43;;;;;;;22.38;50.16;100090.94;5044710;28;20064;-22
2022/06/24 06:44:16;;;;;;;4.85;4.55;;;;;;;22.54;49.97;100090.75;5065598;28;20051;-22
2022/06/24 06:46:42;;;;;;;5.15;4.50;;;;;;;22.67;49.75;100088.09;5043860;28;20631;-22
2022/06/24 06:49:08;;;;;;;4.82;4.43;;;;;;;22.79;49.74;100089.09;5067597;28;20029;-22
2022/06/24 06:51:34;;;;;;;4.20;3.90;;;;;;;22.91;49.13;100086.50;5036946;28;20074;-22
2022/06/24 06:54:00;;;;;;;4.95;4.45;;;;;;;22.97;49.05;100082.50;5061917;28;20028;-22
2022/06/24 06:56:25;;;;;;;4.13;3.83;;;;;;;23.08;48.94;100082.59;5047570;28;20430;-22
2022/06/24 06:58:50;;;;;;;4.60;4.20;;;;;;;23.19;48.38;100076.44;5058996;28;20112;-22
2022/06/24 07:01:16;;;;;;;4.78;4.38;;;;;;;23.30;47.29;100065.78;5063945;28;20028;-22
2022/06/24 07:03:45;;;;;;;4.32;3.95;;;;;;;23.36;47.62;100071.69;5068840;23;20072;-22
2022/06/24 07:06:10;;;;;;;4.03;3.72;;;;;;;23.50;47.67;100068.03;5043993;28;20021;-22
2022/06/24 07:08:35;;;;;;;3.75;3.45;;;;;;;23.67;47.22;100064.91;5049874;28;20438;-22
2022/06/24 07:11:03;;;;;;;4.13;3.83;;;;;;;23.83;47.41;100058.38;5052910;28;20029;-21
2022/06/24 07:13:28;;;;;;;4.95;4.15;;;;;;;23.92;47.09;100063.09;5048628;28;20029;-22
2022/06/24 07:15:54;;;;;;;3.83;3.53;;;;;;;24.05;46.89;100063.03;5033023;28;20020;-21
2022/06/24 07:18:20;;;;;;;7.82;4.15;;;;;;;24.18;46.77;100062.97;4995017;28;20022;-21
2022/06/24 07:20:45;;;;;;;4.03;3.63;;;;;;;24.32;46.99;100048.44;5030840;28;20032;-21
2022/06/24 07:23:18;;;;;;;3.88;3.58;;;;;;;24.51;46.94;100056.94;5035250;28;20040;-22
2022/06/24 07:25:43;;;;;;;8.10;4.00;;;;;;;24.58;46.06;100056.31;4993375;28;20067;-22
2022/06/24 07:28:09;;;;;;;7.30;4.43;;;;;;;24.67;45.67;100057.44;4996152;28;20026;-22
2022/06/24 07:30:34;;;;;;;4.75;4.15;;;;;;;24.80;45.57;100048.38;5033864;28;20033;-22
2022/06/24 07:33:06;;;;;;;3.70;3.40;;;;;;;24.94;45.11;100050.84;5009008;28;20037;-21
2022/06/24 07:35:31;;;;;;;5.07;3.35;;;;;;;25.05;44.78;100041.06;5027280;28;20488;-21
2022/06/24 07:37:56;;;;;;;4.40;3.80;;;;;;;25.16;45.42;100041.03;5029770;28;20107;-21
2022/06/24 07:40:22;;;;;;;4.65;3.60;;;;;;;25.84;42.17;100040.03;5029899;28;20458;-22
2022/06/24 07:42:48;;;;;;;3.90;3.60;;;;;;;25.95;41.35;100031.03;5015726;28;20394;-22
2022/06/24 07:45:14;;;;;;;3.88;3.58;;;;;;;25.80;42.47;100027.78;4994021;28;20057;-23
2022/06/24 07:47:40;;;;;;;4.20;3.88;;;;;;;25.76;43.08;100026.31;5016590;28;20116;-23
2022/06/24 07:50:06;;;;;;;4.18;3.50;;;;;;;25.76;42.04;100020.91;5008117;28;20131;-23
2022/06/24 07:52:35;;;;;;;4.07;3.67;;;;;;;25.78;42.51;100018.97;5013673;28;20033;-23
2022/06/24 07:57:44;;;;;;;4.22;3.83;;;;;;;25.93;42.18;100019.50;5028706;28;20112;-23
2022/06/24 08:00:10;;;;;;;4.80;3.70;;;;;;;26.04;42.18;100013.16;5031204;28;20096;-23
2022/06/24 08:02:35;;;;;;;3.70;3.30;;;;;;;26.13;41.74;100027.72;5009797;28;20022;-23
2022/06/24 08:08:22;;;;;;;4.68;3.60;;;;;;;26.38;41.80;100014.84;5026935;28;20819;-22
2022/06/24 08:14:09;;;;;;;6.10;4.45;;;;;;;26.75;42.24;100019.72;5063055;22;20043;-21
2022/06/24 08:16:36;;;;;;;4.00;3.70;;;;;;;26.88;42.15;100011.38;5091227;28;20024;-23
2022/06/24 08:19:01;;;;;;;4.28;3.88;;;;;;;26.95;41.64;100011.69;5097196;28;20560;-21
2022/06/24 08:21:27;;;;;;;5.70;3.95;;;;;;;27.00;41.72;100014.88;5087920;28;20110;-22
2022/06/24 08:23:52;;;;;;;4.13;3.78;;;;;;;27.10;41.78;100005.91;5086011;28;20028;-23
2022/06/24 08:26:18;;;;;;;3.65;3.40;;;;;;;27.16;41.35;99997.25;5073450;28;20395;-23
2022/06/24 08:28:44;;;;;;;5.40;3.50;;;;;;;27.29;41.28;99983.47;5074164;28;20028;-23
2022/06/24 08:31:10;;;;;;;3.80;3.50;;;;;;;27.41;41.83;99985.03;5040862;28;20032;-22
2022/06/24 08:33:35;;;;;;;4.15;3.72;;;;;;;27.58;41.52;99984.47;5050545;28;20039;-21
2022/06/24 08:36:01;;;;;;;4.60;3.83;;;;;;;27.69;41.44;99989.78;5071460;28;20028;-22
2022/06/24 08:38:27;;;;;;;4.03;3.65;;;;;;;27.74;40.75;99987.50;5071558;28;20465;-21
2022/06/24 08:40:53;;;;;;;4.63;3.80;;;;;;;27.82;40.71;99985.94;5032960;28;20028;-22
2022/06/24 08:43:20;;;;;;;4.18;3.72;;;;;;;27.92;41.55;99981.38;5066799;28;20035;-21
2022/06/24 08:45:46;;;;;;;5.25;4.53;;;;;;;28.18;42.07;99989.72;5072867;28;20102;-22
2022/06/24 08:48:12;;;;;;;5.40;5.00;;;;;;;28.29;41.89;99975.19;5060972;28;20054;-23
2022/06/24 08:50:37;;;;;;;4.80;4.40;;;;;;;28.35;42.11;99981.03;5063689;28;20606;-22
2022/06/24 08:53:08;;;;;;;4.57;4.22;;;;;;;28.42;41.54;99972.16;5072488;28;20686;-21
2022/06/24 08:55:37;;;;;;;;;;;;;;;28.49;41.50;99983.25;5078569;28;20024;-24
2022/06/24 08:58:11;;;;;;;5.63;4.57;;;;;;;28.67;42.07;99975.19;5058698;28;19912;-22
2022/06/24 09:00:38;;;;;;;4.97;4.55;;;;;;;28.80;42.00;99979.41;5050566;23;20052;-21
2022/06/24 09:03:04;;;;;;;4.93;4.63;;;;;;;28.97;41.66;99976.94;5053153;28;20095;-22
2022/06/24 09:06:12;;;;;;;5.53;5.03;;;;;;;29.10;41.66;99976.59;5013427;28;20016;-22
2022/06/24 09:08:40;;;;;;;5.03;4.63;;;;;;;29.21;40.88;99981.78;5056848;28;20373;-23
2022/06/24 09:11:07;;;;;;;5.55;5.00;;;;;;;29.38;41.34;99973.81;5055616;28;20027;-23
2022/06/24 09:13:49;;;;;;;5.45;4.80;;;;;;;29.54;40.73;99976.72;5054177;28;20024;-23
2022/06/24 09:16:18;;;;;;;5.38;4.85;;;;;;;29.69;40.00;99984.31;5051249;28;20065;-24
2022/06/24 09:18:55;;;;;;;5.57;5.10;;;;;;;29.80;40.02;99980.50;5037118;28;20029;-22
2022/06/24 09:21:27;;;;;;;5.00;4.57;;;;;;;29.88;39.90;99974.28;5048300;28;20040;-22
2022/06/24 09:23:55;;;;;;;5.47;5.00;;;;;;;29.92;40.63;99971.09;5057610;28;20070;-22
2022/06/24 09:26:30;;;;;;;4.90;4.50;;;;;;;29.98;40.75;99966.88;5051345;28;20033;-23
2022/06/24 09:28:59;;;;;;;5.20;4.80;;;;;;;30.02;40.55;99983.72;5051539;28;20029;-23
2022/06/24 09:31:28;;;;;;;5.97;5.43;;;;;;;30.17;39.42;99979.44;5048466;28;20032;-23
2022/06/24 09:33:53;;;;;;;6.80;4.80;;;;;;;30.15;40.02;99986.06;5049375;28;20658;-22
2022/06/24 09:36:24;;;;;;;5.68;5.22;;;;;;;30.19;40.30;99976.56;5054524;28;20052;-23
2022/06/24 09:39:13;;;;;;;5.63;5.20;;;;;;;30.27;40.12;99976.63;5046582;28;20037;-23
2022/06/24 09:41:47;;;;;;;6.93;5.13;;;;;;;30.23;39.66;99979.84;5034240;28;20035;-21
2022/06/24 09:44:13;;;;;;;4.82;4.40;;;;;;;30.47;39.13;99977.25;5029317;28;20067;-22
2022/06/24 09:46:40;;;;;;;4.93;4.60;;;;;;;30.47;39.69;99984.53;5046494;28;20040;-22
2022/06/24 09:49:09;;;;;;;5.53;5.00;;;;;;;30.67;39.23;99981.59;5033616;28;20090;-23
2022/06/24 09:51:34;;;;;;;6.40;5.85;;;;;;;30.76;39.00;99985.22;5050780;28;20020;-22
2022/06/24 09:54:00;;;;;;;10.93;6.20;;;;;;;30.74;39.19;99999.00;5049448;28;20032;-23
2022/06/24 09:56:27;;;;;;;6.90;5.78;;;;;;;30.62;39.58;99997.53;5049091;28;20064;-22
2022/06/24 10:01:38;;;;;;;5.72;5.03;;;;;;;30.26;39.56;100015.69;5045452;28;20142;-22
2022/06/24 10:04:05;;;;;;;5.80;4.35;;;;;;;30.07;39.64;100023.00;5068899;28;20033;-22
2022/06/24 10:06:35;;;;;;;5.35;4.07;;;;;;;29.89;40.32;100027.63;5073114;28;20340;-23
2022/06/24 10:09:07;;;;;;;4.57;4.18;;;;;;;29.75;40.32;100021.75;5076982;28;20104;-23
2022/06/24 10:11:34;;;;;;;5.97;4.03;;;;;;;29.67;41.00;100030.66;5068409;28;20047;-21
2022/06/24 10:14:00;;;;;;;6.30;3.70;;;;;;;29.57;41.06;100035.28;5070691;28;20067;-23
2022/06/24 10:16:25;;;;;;;6.53;3.50;;;;;;;29.41;41.46;100025.09;5072234;28;20426;-23
2022/06/24 10:18:51;;;;;;;7.72;3.85;;;;;;;29.27;41.99;100031.91;5064990;28;21156;-22
2022/06/24 10:21:20;;;;;;;7.90;3.40;;;;;;;29.15;42.63;100033.97;5070049;28;20021;-21
2022/06/24 10:23:48;;;;;;;6.00;3.70;;;;;;;28.96;42.95;100049.34;5067327;28;20025;-21
2022/06/24 10:26:26;;;;;;;4.70;3.35;;;;;;;28.81;43.26;100047.09;5072667;28;20070;-21
2022/06/24 10:29:04;;;;;;;5.20;3.20;;;;;;;28.68;43.46;100046.56;5065156;28;20035;-22
2022/06/24 10:31:56;;;;;;;3.33;3.10;;;;;;;28.59;43.64;100045.59;5074467;28;20484;-23
2022/06/24 10:34:21;;;;;;;5.13;2.90;;;;;;;28.50;44.02;100046.47;5069580;28;20024;-22
2022/06/24 10:36:47;;;;;;;8.40;3.30;;;;;;;28.38;44.19;100049.34;5073102;28;20035;-21
2022/06/24 10:39:16;;;;;;;3.65;2.63;;;;;;;28.27;44.74;100050.38;5070964;28;20055;-22
2022/06/24 10:41:41;;;;;;;6.43;2.95;;;;;;;28.18;45.18;100051.22;5092993;28;20056;-22
2022/06/24 10:44:33;;;;;;;3.05;2.63;;;;;;;28.05;45.40;100027.97;5057068;28;20121;-23
2022/06/24 10:47:04;;;;;;;3.58;2.90;;;;;;;27.96;45.29;100034.25;5073110;28;20039;-23
2022/06/24 10:49:51;;;;;;;2.83;2.63;;;;;;;27.91;45.41;100041.97;5075028;28;20025;-22
2022/06/24 10:52:29;;;;;;;3.03;2.70;;;;;;;27.86;46.26;100030.69;5077386;28;20025;-22
2022/06/24 10:55:18;;;;;;;3.60;2.40;;;;;;;27.78;46.22;100029.56;5070911;28;20031;-22
2022/06/24 10:57:49;;;;;;;5.38;3.05;;;;;;;27.73;46.21;100022.84;5069931;28;20394;-23
2022/06/24 11:00:20;;;;;;;4.90;2.85;;;;;;;27.67;46.08;100008.88;5056917;28;20032;-22
2022/06/24 11:02:48;;;;;;;7.05;3.22;;;;;;;27.63;46.39;100003.88;5043967;28;20024;-22
2022/06/24 11:05:17;;;;;;;3.20;2.90;;;;;;;27.57;46.41;99994.44;5057593;28;20022;-23
2022/06/24 11:07:50;;;;;;;3.03;2.70;;;;;;;27.56;46.12;99991.88;5070595;28;20033;-23
2022/06/24 11:10:19;;;;;;;3.85;3.05;;;;;;;27.58;46.60;100003.44;5049447;28;20154;-23
2022/06/24 11:12:48;;;;;;;3.60;3.30;;;;;;;27.57;47.39;100001.75;5051126;28;20116;-23
2022/06/24 11:15:18;;;;;;;4.10;2.78;;;;;;;27.54;46.99;99997.44;5078339;28;20028;-24
2022/06/24 11:17:43;;;;;;;4.43;3.60;;;;;;;27.50;46.76;99993.31;5049546;28;20062;-23
2022/06/24 11:20:10;;;;;;;3.25;2.95;;;;;;;27.52;47.15;99992.19;5071686;28;20111;-23
2022/06/24 11:22:43;;;;;;;3.67;3.00;;;;;;;27.52;46.94;100002.16;5073201;28;20105;-23
2022/06/24 11:25:13;;;;;;;3.50;3.03;;;;;;;27.56;47.31;100002.72;5076912;28;20066;-24
2022/06/24 11:27:38;;;;;;;;;;;;;;;27.61;47.66;99992.31;5073422;28;20063;-22
2022/06/24 11:30:04;;;;;;;3.40;3.20;;;;;;;27.64;48.09;99989.38;5077366;28;19959;-23
2022/06/24 11:32:50;;;;;;;3.33;2.75;;;;;;;27.65;47.67;99986.50;5071326;28;20283;-22
2022/06/24 11:35:22;;;;;;;3.47;3.20;;;;;;;27.74;48.21;99986.66;5047872;28;20023;-22
2022/06/24 11:37:48;;;;;;;3.17;2.97;;;;;;;27.82;48.38;99991.34;5069788;28;20016;-22
2022/06/24 11:40:24;;;;;;;3.83;3.35;;;;;;;27.86;48.32;99990.06;5070554;28;20024;-22
2022/06/24 11:42:50;;;;;;;5.13;3.47;;;;;;;27.88;48.02;99996.19;5067044;28;20409;-22
2022/06/24 11:45:30;;;;;;;3.72;3.50;;;;;;;27.90;48.32;100005.03;5073273;28;20182;-23
2022/06/24 11:47:55;;;;;;;3.63;3.33;;;;;;;27.98;48.42;100007.91;5067668;28;20040;-24